Track Тулупова Ирина

Time Latitude Longitude Accuracy (66% radius in meters) Altitude (meters) Speed (km/hour) Bearing (degrees) Battery (%) GPS flag
11:26:52 60.370962 29.556548 12 56 0 203.25813293457 56 0 delete
11:26:40 60.370962 29.556548 12 56 0 203.25813293457 56 0 delete
11:26:27 60.370962 29.556548 12 56 0 203.25813293457 56 0 delete
11:26:15 60.370962 29.556548 12 56 0 203.25813293457 56 0 delete
11:26:02 60.370962 29.556548 12 56 0 203.25813293457 56 0 delete
10:25:38 60.370965 29.556536 12 56 0 203.25813293457 56 1 delete
10:25:36 60.370965 29.556536 12 56 0 203.25813293457 56 1 delete
10:25:35 60.370962 29.556548 12 56 0 203.25813293457 56 1 delete
10:25:23 60.370958 29.556571 12 60 0 203.25813293457 56 1 delete
10:25:11 60.370985 29.556626 32 65 0 0.99349588155746 56 1 delete
11:25:12 60.370943 29.556444 12 75 0.76286464929581 35.805740356445 56 0 delete
11:25:00 60.370943 29.556444 12 75 0.76286464929581 35.805740356445 56 0 delete
11:24:47 60.370943 29.556444 12 75 0.76286464929581 35.805740356445 56 0 delete
11:24:35 60.370943 29.556444 12 75 0.76286464929581 35.805740356445 56 0 delete
10:24:15 60.370967 29.556482 16 63 0 0.99349588155746 56 1 delete
10:24:07 60.370967 29.556482 12 59 0 0.99349588155746 56 1 delete
10:23:55 60.370971 29.556484 12 62 0 0.99349588155746 56 1 delete
10:23:42 60.370950 29.556488 12 77 0.83346372842789 48.93522644043 56 1 delete
10:23:39 60.370943 29.556444 12 75 0.76286464929581 35.805740356445 56 1 delete
10:23:29 60.370883 29.556383 12 78 0 188.1438293457 56 1 delete
10:23:16 60.370913 29.556411 12 78 0 168.39057922363 56 1 delete
10:23:03 60.370913 29.556411 12 73 0 168.39057922363 56 1 delete
10:22:51 60.370906 29.556450 12 80 0 168.39057922363 56 1 delete
10:22:39 60.370903 29.556448 16 70 0 168.39057922363 56 1 delete
10:22:26 60.370897 29.556435 12 77 0 112.295753479 56 1 delete
10:22:14 60.370851 29.556409 16 77 0 112.295753479 56 1 delete
10:22:13 60.370823 29.556402 16 74 0 112.295753479 56 1 delete
10:22:12 60.370805 29.556397 16 74 0 112.295753479 56 1 delete
10:22:06 60.370749 29.556441 24 72 0 112.295753479 56 1 delete
10:22:03 60.370730 29.556442 16 68 0 57.774166107178 56 1 delete
10:21:56 60.370703 29.556427 16 76 0 57.774166107178 56 1 delete
10:21:51 60.370694 29.556411 24 67 0 75.31974029541 56 1 delete
10:21:40 60.370666 29.556367 24 69 0.19139961898327 75.31974029541 56 1 delete
10:21:39 60.370647 29.556335 24 70 0.082751154899597 96.214866638184 56 1 delete
10:21:37 60.370616 29.556298 24 74 0 137.71356201172 56 1 delete
10:21:34 60.370562 29.556259 24 73 0.61233538389206 159.40580749512 56 1 delete
10:21:29 60.370539 29.556166 32 73 0.29276636242867 110.34281921387 56 1 delete
11:21:27 60.372139 29.559615 32 72 2.0041565895081 95.124885559082 56 0 delete
11:21:15 60.372139 29.559615 32 72 2.0041565895081 95.124885559082 56 0 delete
11:21:03 60.372139 29.559615 32 72 2.0041565895081 95.124885559082 56 0 delete
11:20:52 60.372139 29.559615 32 72 2.0041565895081 95.124885559082 56 0 delete
11:20:40 60.372139 29.559615 32 72 2.0041565895081 95.124885559082 60 0 delete
11:20:29 60.372139 29.559615 32 72 2.0041565895081 95.124885559082 60 0 delete
11:20:17 60.372139 29.559615 32 72 2.0041565895081 95.124885559082 60 0 delete
11:20:04 60.372139 29.559615 32 72 2.0041565895081 95.124885559082 60 0 delete
11:19:52 60.372139 29.559615 32 72 2.0041565895081 95.124885559082 60 0 delete
11:19:39 60.372139 29.559615 32 72 2.0041565895081 95.124885559082 60 0 delete
11:19:26 60.372139 29.559615 32 72 2.0041565895081 95.124885559082 60 0 delete
11:19:13 60.372139 29.559615 32 72 2.0041565895081 95.124885559082 60 0 delete
11:19:01 60.372139 29.559615 32 72 2.0041565895081 95.124885559082 60 0 delete